createdAt,value
2018-03-27T00:02:11.957Z,44.50
2018-03-27T00:04:39.548Z,50.70
2018-03-27T00:07:07.061Z,51.73
2018-03-27T00:09:34.611Z,45.43
2018-03-27T00:12:02.116Z,49.23
2018-03-27T00:14:29.640Z,44.60
2018-03-27T00:16:57.218Z,45.20
2018-03-27T00:19:24.743Z,47.07
2018-03-27T00:21:53.066Z,45.27
2018-03-27T00:24:20.576Z,47.40
2018-03-27T00:27:00.664Z,45.20
2018-03-27T00:29:40.038Z,51.13
2018-03-27T00:32:19.554Z,53.03
2018-03-27T00:34:58.907Z,49.33
2018-03-27T00:37:38.408Z,50.03
2018-03-27T00:40:17.760Z,48.40
2018-03-27T00:42:50.009Z,54.37
2018-03-27T00:45:17.557Z,59.00
2018-03-27T00:47:45.332Z,55.90
2018-03-27T00:50:13.198Z,58.37
2018-03-27T00:52:40.721Z,59.87
2018-03-27T00:55:08.233Z,56.70
2018-03-27T00:57:35.772Z,49.07
2018-03-27T01:00:03.326Z,58.60
2018-03-27T01:02:30.872Z,49.67
2018-03-27T01:05:04.232Z,53.00
2018-03-27T01:07:32.552Z,51.87
2018-03-27T01:10:00.056Z,47.03
2018-03-27T01:12:28.682Z,46.20
2018-03-27T01:14:56.216Z,48.10
2018-03-27T01:17:23.744Z,48.47
2018-03-27T01:19:52.274Z,46.57
2018-03-27T01:22:20.188Z,44.43
2018-03-27T01:24:47.696Z,42.13
2018-03-27T01:27:15.235Z,42.37
2018-03-27T01:29:42.748Z,35.57
2018-03-27T01:32:10.578Z,41.83
2018-03-27T01:34:38.109Z,39.03
2018-03-27T01:37:05.649Z,44.10
2018-03-27T01:39:33.165Z,33.57
2018-03-27T01:42:00.709Z,41.27
2018-03-27T01:44:28.224Z,41.63
2018-03-27T01:46:55.766Z,41.40
2018-03-27T01:49:24.388Z,41.67
2018-03-27T01:51:51.901Z,40.07
2018-03-27T01:54:19.440Z,47.40
2018-03-27T01:56:55.956Z,44.70
2018-03-27T01:59:23.494Z,49.80
2018-03-27T02:01:51.034Z,45.87
2018-03-27T02:04:19.348Z,46.53
2018-03-27T02:06:46.898Z,44.27
2018-03-27T02:09:14.437Z,43.30
2018-03-27T02:11:47.545Z,50.53
2018-03-27T02:14:20.885Z,43.70
2018-03-27T02:16:54.053Z,52.00
2018-03-27T02:19:27.345Z,51.40
2018-03-27T02:21:54.371Z,46.20
2018-03-27T02:24:22.369Z,49.13
2018-03-27T02:26:50.687Z,52.67
2018-03-27T02:29:18.359Z,47.80
2018-03-27T02:31:45.878Z,42.83
2018-03-27T02:34:14.190Z,48.60
2018-03-27T02:36:41.725Z,50.40
2018-03-27T02:39:09.263Z,53.97
2018-03-27T02:41:37.551Z,55.77
2018-03-27T02:44:05.109Z,53.00
2018-03-27T02:46:32.633Z,58.70
2018-03-27T02:49:00.185Z,56.13
2018-03-27T02:51:27.733Z,53.63
2018-03-27T02:53:55.266Z,47.20
2018-03-27T02:56:22.918Z,58.87
2018-03-27T02:58:50.441Z,52.33
2018-03-27T03:01:18.750Z,49.80
2018-03-27T03:03:46.265Z,53.43
2018-03-27T03:06:14.581Z,54.43
2018-03-27T03:08:42.122Z,54.10
2018-03-27T03:11:09.685Z,50.03
2018-03-27T03:13:37.209Z,52.50
2018-03-27T03:16:04.737Z,51.50
2018-03-27T03:18:32.251Z,49.73
2018-03-27T03:20:59.788Z,51.37
2018-03-27T03:23:28.069Z,50.73
2018-03-27T03:25:55.610Z,55.20
2018-03-27T03:28:23.892Z,57.93
2018-03-27T03:30:51.472Z,52.50
2018-03-27T03:33:19.036Z,54.80
2018-03-27T03:35:46.681Z,49.47
2018-03-27T03:38:14.199Z,54.60
2018-03-27T03:40:42.485Z,53.97
2018-03-27T03:43:10.814Z,56.70
2018-03-27T03:45:38.331Z,56.47
2018-03-27T03:48:05.893Z,56.77
2018-03-27T03:50:33.411Z,56.10
2018-03-27T03:53:01.767Z,59.90
2018-03-27T03:55:29.295Z,55.53
2018-03-27T03:57:56.830Z,50.23
2018-03-27T04:00:24.658Z,56.40
2018-03-27T04:02:52.197Z,53.23
2018-03-27T04:05:19.716Z,50.77
2018-03-27T04:07:47.274Z,52.80
2018-03-27T04:10:14.830Z,49.27
2018-03-27T04:12:42.366Z,56.73
2018-03-27T04:15:10.645Z,53.43
2018-03-27T04:17:38.208Z,52.23
2018-03-27T04:20:05.746Z,53.07
2018-03-27T04:22:33.297Z,54.60
2018-03-27T04:25:01.572Z,52.27
2018-03-27T04:27:29.886Z,64.03
2018-03-27T04:29:57.425Z,54.17
2018-03-27T04:32:24.940Z,58.10
2018-03-27T04:34:52.476Z,53.37
2018-03-27T04:37:19.989Z,53.03
2018-03-27T04:39:47.545Z,55.33
2018-03-27T04:42:15.065Z,53.33
2018-03-27T04:44:42.614Z,53.73
2018-03-27T04:47:10.127Z,47.63
2018-03-27T04:49:37.668Z,49.00
2018-03-27T04:52:05.190Z,54.60
2018-03-27T04:54:32.780Z,58.93
2018-03-27T04:57:00.293Z,46.60
2018-03-27T04:59:27.849Z,48.20
2018-03-27T05:01:55.360Z,50.80
2018-03-27T05:04:22.906Z,53.70
2018-03-27T05:06:50.441Z,60.30
2018-03-27T05:09:18.745Z,58.83
2018-03-27T05:11:46.265Z,51.60
2018-03-27T05:14:13.840Z,52.70
2018-03-27T05:16:42.117Z,55.10
2018-03-27T05:19:10.397Z,53.20
2018-03-27T05:21:37.949Z,53.90
2018-03-27T05:24:05.487Z,48.83
2018-03-27T05:26:33.038Z,44.80
2018-03-27T05:29:00.557Z,48.80
2018-03-27T05:31:28.125Z,53.03
2018-03-27T05:33:55.670Z,44.47
2018-03-27T05:36:23.214Z,57.73
2018-03-27T05:38:50.737Z,51.17
2018-03-27T05:41:19.038Z,52.63
2018-03-27T05:43:46.549Z,51.37
2018-03-27T05:46:14.089Z,46.57
2018-03-27T05:48:41.609Z,51.40
2018-03-27T05:51:09.153Z,41.40
2018-03-27T05:53:36.730Z,46.00
2018-03-27T05:56:04.287Z,52.37
2018-03-27T05:58:31.798Z,44.27
2018-03-27T06:01:00.120Z,40.17
2018-03-27T06:03:27.678Z,44.80
2018-03-27T06:05:55.233Z,49.97
2018-03-27T06:08:22.809Z,49.33
2018-03-27T06:10:50.324Z,48.67
2018-03-27T06:13:17.894Z,47.47
2018-03-27T06:15:45.405Z,44.23
2018-03-27T06:18:12.945Z,43.40
2018-03-27T06:20:40.466Z,52.10
2018-03-27T06:23:08.001Z,43.40
2018-03-27T06:25:35.533Z,39.00
2018-03-27T06:28:03.844Z,41.80
2018-03-27T06:30:31.385Z,47.67
2018-03-27T06:32:58.994Z,51.47
2018-03-27T06:35:26.509Z,43.57
2018-03-27T06:37:54.072Z,41.37
2018-03-27T06:40:21.588Z,37.10
2018-03-27T06:42:49.922Z,38.33
2018-03-27T06:45:17.458Z,42.60
2018-03-27T06:47:44.995Z,39.30
2018-03-27T06:50:13.304Z,35.33
2018-03-27T06:52:40.824Z,35.60
2018-03-27T06:55:09.134Z,38.47
2018-03-27T06:57:36.648Z,40.13
2018-03-27T07:00:04.986Z,43.17
2018-03-27T07:02:32.547Z,36.53
2018-03-27T07:05:00.108Z,36.30
2018-03-27T07:07:27.689Z,37.60
2018-03-27T07:09:55.201Z,38.07
2018-03-27T07:12:22.881Z,35.87
2018-03-27T07:14:50.464Z,35.63
2018-03-27T07:17:18.274Z,41.70
2018-03-27T07:19:45.832Z,34.37
2018-03-27T07:22:13.388Z,38.23
2018-03-27T07:24:40.901Z,35.60
2018-03-27T07:27:08.463Z,35.77
2018-03-27T07:29:35.984Z,31.97
2018-03-27T07:32:03.521Z,32.53
2018-03-27T07:34:31.032Z,33.10
2018-03-27T07:36:58.587Z,35.50
2018-03-27T07:39:26.108Z,38.90
2018-03-27T07:41:53.642Z,33.37
2018-03-27T07:44:21.926Z,42.67
2018-03-27T07:46:49.497Z,32.57
2018-03-27T07:49:17.025Z,36.00
2018-03-27T07:51:44.562Z,31.80
2018-03-27T07:54:12.079Z,29.70
2018-03-27T07:56:40.398Z,34.77
2018-03-27T07:59:07.926Z,33.70
2018-03-27T08:01:36.224Z,31.53
2018-03-27T08:04:03.745Z,39.27
2018-03-27T08:06:32.094Z,38.37
2018-03-27T08:08:59.938Z,35.93
2018-03-27T08:11:27.449Z,86.13
2018-03-27T08:13:56.077Z,37.10
2018-03-27T08:16:23.590Z,27.43
2018-03-27T08:18:51.892Z,30.30
2018-03-27T08:21:19.410Z,26.40
2018-03-27T08:23:47.710Z,27.23
2018-03-27T08:26:15.241Z,26.47
2018-03-27T08:28:43.540Z,24.77
2018-03-27T08:31:11.053Z,23.93
2018-03-27T08:33:38.593Z,24.37
2018-03-27T08:36:06.109Z,24.23
2018-03-27T08:38:33.649Z,31.70
2018-03-27T08:41:01.165Z,25.67
2018-03-27T08:43:28.700Z,26.73
2018-03-27T08:45:56.281Z,49.63
2018-03-27T08:48:23.848Z,96.60
2018-03-27T08:50:51.364Z,29.77
2018-03-27T08:53:18.875Z,36.87
2018-03-27T08:55:47.173Z,24.87
2018-03-27T08:58:14.689Z,36.93
2018-03-27T09:00:42.254Z,35.93
2018-03-27T09:03:09.769Z,28.60
2018-03-27T09:05:37.312Z,27.57
2018-03-27T09:08:04.841Z,27.80
2018-03-27T09:10:33.144Z,29.90
2018-03-27T09:13:00.652Z,31.93
2018-03-27T09:15:28.965Z,32.67
2018-03-27T09:17:56.499Z,31.73
2018-03-27T09:20:24.850Z,32.00
2018-03-27T09:22:52.394Z,29.00
2018-03-27T09:25:19.937Z,31.47
2018-03-27T09:27:47.497Z,25.13
2018-03-27T09:30:15.349Z,27.27
2018-03-27T09:32:42.868Z,24.53
2018-03-27T09:35:11.190Z,24.60
2018-03-27T09:37:38.716Z,29.40
2018-03-27T09:40:06.259Z,25.80
2018-03-27T09:42:33.793Z,21.23
2018-03-27T09:45:01.342Z,26.70
2018-03-27T09:47:28.890Z,26.93
2018-03-27T09:49:56.409Z,22.53
2018-03-27T09:52:23.963Z,23.77
2018-03-27T09:54:51.497Z,22.00
2018-03-27T09:57:19.397Z,27.73
2018-03-27T09:59:47.760Z,23.90
2018-03-27T10:02:15.309Z,21.00
2018-03-27T10:04:42.833Z,27.97
2018-03-27T10:07:11.237Z,24.20
2018-03-27T10:09:38.848Z,24.13
2018-03-27T10:12:06.393Z,23.90
2018-03-27T10:14:33.957Z,22.33
2018-03-27T10:17:01.518Z,20.70
2018-03-27T10:19:29.054Z,22.93
2018-03-27T10:21:57.519Z,23.67
2018-03-27T10:24:25.074Z,19.80
2018-03-27T10:26:52.617Z,24.43
2018-03-27T10:29:20.401Z,22.97
2018-03-27T10:31:47.989Z,23.00
2018-03-27T10:34:16.379Z,20.90
2018-03-27T10:36:44.821Z,21.50
2018-03-27T10:39:12.361Z,28.63
2018-03-27T10:41:39.902Z,19.50
2018-03-27T10:44:07.470Z,21.40
2018-03-27T10:46:35.052Z,18.80
2018-03-27T10:49:02.613Z,17.27
2018-03-27T10:51:30.133Z,11.33
2018-03-27T10:53:57.677Z,15.70
2018-03-27T10:56:25.197Z,11.90
2018-03-27T10:58:53.629Z,13.40
2018-03-27T11:01:21.160Z,13.33
2018-03-27T11:03:48.770Z,23.10
2018-03-27T11:06:16.301Z,15.00
2018-03-27T11:08:43.860Z,17.83
2018-03-27T11:11:11.377Z,18.93
2018-03-27T11:13:39.684Z,15.80
2018-03-27T11:16:07.232Z,17.23
2018-03-27T11:18:34.768Z,18.43
2018-03-27T11:21:03.085Z,18.30
2018-03-27T11:23:30.604Z,17.40
2018-03-27T11:25:58.157Z,20.03
2018-03-27T11:28:25.690Z,17.10
2018-03-27T11:30:53.294Z,21.13
2018-03-27T11:33:20.832Z,16.30
2018-03-27T11:35:48.413Z,15.90
2018-03-27T11:38:15.931Z,17.30
2018-03-27T11:40:43.747Z,17.17
2018-03-27T11:43:11.269Z,23.07
2018-03-27T11:45:38.815Z,19.10
2018-03-27T11:48:06.366Z,21.40
2018-03-27T11:50:33.920Z,21.67
2018-03-27T11:53:02.222Z,22.77
2018-03-27T11:55:29.771Z,20.60
2018-03-27T11:57:57.296Z,19.67
2018-03-27T12:00:24.837Z,21.07
2018-03-27T12:02:52.361Z,24.13
2018-03-27T12:05:20.017Z,25.40
2018-03-27T12:07:47.529Z,21.17
2018-03-27T12:10:15.835Z,22.17
2018-03-27T12:12:43.412Z,28.70
2018-03-27T12:15:10.958Z,24.50
2018-03-27T12:17:38.857Z,24.27
2018-03-27T12:20:06.393Z,26.33
2018-03-27T12:22:33.958Z,24.20
2018-03-27T12:25:01.473Z,23.67
2018-03-27T12:27:29.041Z,22.00
2018-03-27T12:29:56.568Z,17.77
2018-03-27T12:32:24.889Z,21.83
2018-03-27T12:34:52.405Z,20.60
2018-03-27T12:37:19.957Z,23.27
2018-03-27T12:39:48.245Z,23.63
2018-03-27T12:42:15.818Z,20.30
2018-03-27T12:44:43.326Z,19.70
2018-03-27T12:47:10.869Z,22.83
2018-03-27T12:49:38.429Z,21.67
2018-03-27T12:52:05.989Z,22.73
2018-03-27T12:54:33.513Z,20.27
2018-03-27T12:57:01.029Z,17.87
2018-03-27T12:59:29.337Z,20.03
2018-03-27T13:01:56.857Z,18.30
2018-03-27T13:04:25.165Z,19.53
2018-03-27T13:06:52.685Z,21.20
2018-03-27T13:09:20.997Z,21.87
2018-03-27T13:11:48.563Z,19.47
2018-03-27T13:14:16.093Z,17.37
2018-03-27T13:16:43.628Z,20.10
2018-03-27T13:19:12.261Z,19.70
2018-03-27T13:21:39.791Z,20.30
2018-03-27T13:24:07.458Z,20.53
2018-03-27T13:26:35.073Z,18.97
2018-03-27T13:29:03.389Z,19.00
2018-03-27T13:31:30.908Z,20.10
2018-03-27T13:33:59.228Z,20.30
2018-03-27T13:36:26.746Z,22.37
2018-03-27T13:38:55.105Z,21.83
2018-03-27T13:41:22.609Z,18.97
2018-03-27T13:43:50.137Z,19.80
2018-03-27T13:46:18.443Z,18.63
2018-03-27T13:48:45.961Z,20.27
2018-03-27T13:51:14.269Z,20.47
2018-03-27T13:53:41.813Z,24.37
2018-03-27T13:56:09.357Z,23.40
2018-03-27T13:58:37.641Z,16.83
2018-03-27T14:01:05.185Z,30.10
2018-03-27T14:03:33.713Z,20.13
2018-03-27T14:06:01.281Z,18.07
2018-03-27T14:08:28.800Z,21.40
2018-03-27T14:10:56.359Z,25.60
2018-03-27T14:13:23.929Z,23.23
2018-03-27T14:15:51.470Z,24.93
2018-03-27T14:18:18.992Z,19.23
2018-03-27T14:20:47.365Z,20.70
2018-03-27T14:23:14.937Z,22.27
2018-03-27T14:25:43.233Z,18.60
2018-03-27T14:28:10.772Z,21.17
2018-03-27T14:30:38.360Z,23.63
2018-03-27T14:33:06.651Z,17.97
2018-03-27T14:35:34.165Z,20.80
2018-03-27T14:38:01.730Z,17.80
2018-03-27T14:40:29.253Z,22.10
2018-03-27T14:42:56.797Z,23.03
2018-03-27T14:45:24.653Z,20.50
2018-03-27T14:47:52.269Z,19.43
2018-03-27T14:50:19.810Z,17.70
2018-03-27T14:52:47.380Z,19.20
2018-03-27T14:55:14.896Z,19.87
2018-03-27T14:57:42.437Z,21.13
2018-03-27T15:00:09.958Z,20.43
2018-03-27T15:02:37.545Z,17.27
2018-03-27T15:05:05.071Z,20.57
2018-03-27T15:07:32.586Z,22.47
2018-03-27T15:10:00.896Z,21.37
2018-03-27T15:12:28.416Z,18.73
2018-03-27T15:14:55.981Z,20.87
2018-03-27T15:17:24.286Z,23.40
2018-03-27T15:19:51.834Z,19.70
2018-03-27T15:22:19.358Z,19.97
2018-03-27T15:24:46.902Z,19.07
2018-03-27T15:27:14.430Z,27.30
2018-03-27T15:29:41.992Z,19.70
2018-03-27T15:32:09.753Z,21.43
2018-03-27T15:34:37.305Z,21.37
2018-03-27T15:37:04.833Z,21.93
2018-03-27T15:39:32.764Z,18.13
2018-03-27T15:42:01.054Z,18.70
2018-03-27T15:44:29.341Z,20.20
2018-03-27T15:46:56.884Z,21.90
2018-03-27T15:49:24.693Z,24.73
2018-03-27T15:51:52.224Z,25.87
2018-03-27T15:54:19.738Z,31.03
2018-03-27T15:56:47.298Z,25.20
2018-03-27T15:59:15.621Z,19.97
2018-03-27T16:01:43.168Z,21.93
2018-03-27T16:04:10.697Z,24.43
2018-03-27T16:06:39.012Z,24.13
2018-03-27T16:09:06.537Z,22.43
2018-03-27T16:11:34.088Z,21.40
2018-03-27T16:14:02.382Z,27.13
2018-03-27T16:16:29.930Z,24.70
2018-03-27T16:18:57.452Z,21.50
2018-03-27T16:21:25.009Z,23.53
2018-03-27T16:23:52.525Z,20.90
2018-03-27T16:26:20.075Z,22.80
2018-03-27T16:28:47.593Z,23.73
2018-03-27T16:31:15.877Z,26.70
2018-03-27T16:33:44.185Z,25.87
2018-03-27T16:36:11.717Z,26.03
2018-03-27T16:38:39.276Z,30.10
2018-03-27T16:41:06.795Z,28.77
2018-03-27T16:43:34.391Z,33.30
2018-03-27T16:46:01.866Z,32.63
2018-03-27T16:48:29.418Z,32.13
2018-03-27T16:50:56.930Z,33.27
2018-03-27T16:53:24.477Z,34.33
2018-03-27T16:55:51.988Z,31.47
2018-03-27T16:58:19.761Z,31.33
2018-03-27T17:00:47.282Z,43.60
2018-03-27T17:03:14.841Z,28.20
2018-03-27T17:05:42.638Z,33.17
2018-03-27T17:08:11.217Z,29.43
2018-03-27T17:10:38.759Z,29.63
2018-03-27T17:13:06.297Z,33.47
2018-03-27T17:15:34.093Z,38.37
2018-03-27T17:18:01.637Z,33.43
2018-03-27T17:20:29.157Z,39.40
2018-03-27T17:22:57.437Z,42.27
2018-03-27T17:25:25.741Z,35.97
2018-03-27T17:27:53.261Z,39.60
2018-03-27T17:30:21.069Z,39.47
2018-03-27T17:32:48.612Z,33.90
2018-03-27T17:35:16.154Z,30.37
2018-03-27T17:37:43.672Z,32.70
2018-03-27T17:40:11.226Z,35.50
2018-03-27T17:42:38.740Z,31.53
2018-03-27T17:45:06.296Z,35.50
2018-03-27T17:47:33.850Z,29.80
2018-03-27T17:50:01.377Z,31.83
2018-03-27T17:52:29.658Z,32.63
2018-03-27T17:54:57.196Z,30.00
2018-03-27T17:57:25.476Z,32.57
2018-03-27T17:59:53.789Z,33.37
2018-03-27T18:02:21.324Z,30.00
2018-03-27T18:04:48.873Z,32.03
2018-03-27T18:07:17.148Z,31.50
2018-03-27T18:09:44.702Z,32.40
2018-03-27T18:12:12.977Z,29.17
2018-03-27T18:14:41.286Z,36.97
2018-03-27T18:17:08.850Z,32.40
2018-03-27T18:19:36.360Z,28.77
2018-03-27T18:22:04.665Z,30.00
2018-03-27T18:24:32.185Z,30.53
2018-03-27T18:27:00.508Z,31.30
2018-03-27T18:29:28.374Z,28.80
2018-03-27T18:31:55.908Z,25.80
2018-03-27T18:34:23.420Z,28.60
2018-03-27T18:36:50.976Z,32.17
2018-03-27T18:39:18.496Z,31.97
2018-03-27T18:41:46.040Z,28.73
2018-03-27T18:44:13.562Z,33.93
2018-03-27T18:46:41.871Z,34.13
2018-03-27T18:49:09.387Z,33.00
2018-03-27T18:51:37.699Z,30.73
2018-03-27T18:54:05.210Z,31.97
2018-03-27T18:56:33.055Z,27.17
2018-03-27T18:59:00.572Z,33.80
2018-03-27T19:01:28.113Z,38.30
2018-03-27T19:03:55.637Z,34.20
2018-03-27T19:06:23.227Z,33.47
2018-03-27T19:08:50.748Z,30.00
2018-03-27T19:11:18.265Z,29.90
2018-03-27T19:13:45.804Z,34.93
2018-03-27T19:16:13.320Z,28.23
2018-03-27T19:18:41.145Z,32.80
2018-03-27T19:21:08.665Z,31.43
2018-03-27T19:23:36.472Z,34.00
2018-03-27T19:26:04.233Z,30.17
2018-03-27T19:28:31.769Z,30.17
2018-03-27T19:30:59.335Z,35.07
2018-03-27T19:33:26.866Z,34.10
2018-03-27T19:35:54.380Z,34.30
2018-03-27T19:38:21.913Z,34.17
2018-03-27T19:40:49.460Z,32.73
2018-03-27T19:43:16.997Z,31.83
2018-03-27T19:45:44.534Z,34.43
2018-03-27T19:48:12.947Z,33.33
2018-03-27T19:50:40.509Z,29.33
2018-03-27T19:53:08.373Z,29.37
2018-03-27T19:55:35.912Z,34.80
2018-03-27T19:58:03.424Z,30.70
2018-03-27T20:00:31.023Z,29.17
2018-03-27T20:02:58.913Z,29.90
2018-03-27T20:05:28.159Z,34.50
2018-03-27T20:10:28.960Z,31.90
2018-03-27T20:12:56.785Z,35.10
2018-03-27T20:15:24.654Z,30.47
2018-03-27T20:17:52.204Z,32.40
2018-03-27T20:20:19.757Z,32.80
2018-03-27T20:22:47.281Z,33.17
2018-03-27T20:25:14.824Z,30.30
2018-03-27T20:27:42.340Z,35.50
2018-03-27T20:30:09.881Z,35.37
2018-03-27T20:32:37.395Z,34.40
2018-03-27T20:35:04.950Z,30.77
2018-03-27T20:37:32.458Z,38.60
2018-03-27T20:39:59.980Z,36.63
2018-03-27T20:42:27.512Z,30.33
2018-03-27T20:44:55.050Z,33.27
2018-03-27T20:47:22.594Z,32.97
2018-03-27T20:49:50.113Z,30.50
2018-03-27T20:52:18.418Z,29.13
2018-03-27T20:54:45.942Z,30.67
2018-03-27T20:57:14.252Z,28.40
2018-03-27T20:59:41.760Z,30.53
2018-03-27T21:02:09.305Z,34.40
2018-03-27T21:04:36.813Z,36.47
2018-03-27T21:07:04.360Z,34.40
2018-03-27T21:09:31.872Z,31.73
2018-03-27T21:11:59.717Z,35.30
2018-03-27T21:14:27.238Z,34.23
2018-03-27T21:16:54.799Z,28.67
2018-03-27T21:19:22.325Z,31.07
2018-03-27T21:21:49.837Z,35.47
2018-03-27T21:24:17.378Z,35.53
2018-03-27T21:26:44.890Z,31.97
2018-03-27T21:29:13.317Z,39.97
2018-03-27T21:31:40.840Z,40.20
2018-03-27T21:34:09.197Z,33.77
2018-03-27T21:36:36.717Z,40.30
2018-03-27T21:39:04.249Z,42.63
2018-03-27T21:41:31.764Z,36.73
2018-03-27T21:44:00.075Z,41.23
2018-03-27T21:46:27.593Z,45.83
2018-03-27T21:48:55.136Z,47.30
2018-03-27T21:51:22.668Z,37.57
2018-03-27T21:53:50.206Z,46.77
2018-03-27T21:56:17.725Z,39.30
2018-03-27T21:58:46.061Z,43.47
2018-03-27T22:01:13.576Z,40.87
2018-03-27T22:03:41.879Z,41.30
2018-03-27T22:06:09.389Z,40.17
2018-03-27T22:08:37.698Z,40.87
2018-03-27T22:11:05.217Z,37.37
2018-03-27T22:13:33.497Z,40.37
2018-03-27T22:16:01.806Z,38.07
2018-03-27T22:18:29.316Z,42.60
2018-03-27T22:20:56.869Z,40.67
2018-03-27T22:23:24.386Z,38.73
2018-03-27T22:25:51.920Z,40.50
2018-03-27T22:28:19.430Z,41.53
2018-03-27T22:30:46.968Z,38.77
2018-03-27T22:33:14.481Z,40.87
2018-03-27T22:35:42.017Z,40.30
2018-03-27T22:38:10.293Z,41.40
2018-03-27T22:40:38.592Z,35.60
2018-03-27T22:43:06.099Z,41.60
2018-03-27T22:45:33.637Z,37.23
2018-03-27T22:48:01.165Z,37.57
2018-03-27T22:50:28.709Z,39.27
2018-03-27T22:52:56.221Z,39.00
2018-03-27T22:55:23.776Z,37.97
2018-03-27T22:57:51.517Z,35.57
2018-03-27T23:00:19.037Z,40.97
2018-03-27T23:02:46.581Z,35.43
2018-03-27T23:05:14.864Z,40.33
2018-03-27T23:07:42.398Z,37.47
2018-03-27T23:10:09.912Z,43.20
2018-03-27T23:12:37.450Z,39.10
2018-03-27T23:15:04.962Z,36.40
2018-03-27T23:17:32.495Z,39.20
2018-03-27T23:20:00.345Z,37.53
2018-03-27T23:22:31.772Z,39.80
2018-03-27T23:24:59.325Z,37.13
2018-03-27T23:27:26.868Z,35.70
2018-03-27T23:29:55.150Z,40.37
2018-03-27T23:32:23.049Z,45.03
2018-03-27T23:34:50.565Z,36.80
2018-03-27T23:37:18.121Z,35.03
2018-03-27T23:39:45.633Z,38.50
2018-03-27T23:42:13.154Z,36.20
2018-03-27T23:44:40.689Z,37.70
2018-03-27T23:47:08.209Z,38.07
2018-03-27T23:49:35.745Z,39.80
2018-03-27T23:52:03.285Z,41.33
2018-03-27T23:54:30.837Z,40.63
2018-03-27T23:56:58.385Z,31.60
2018-03-27T23:59:25.926Z,35.30
